Sankoumaru 31 — JD2200 — position and weather

sailwx.info

Track history (hours):
 
Tides and Currents Weather Stations Pressure Air Temp Water Temp Dewpoint Dewpoint Depression Visibility Wind Speed Wind Dir Waves Ship Positions

Sankoumaru 31

Last reported at 2015-May-20 17:24 UTC. Time now 2015-May-22 14:40 UTC.
Position N 35°51' E 140°57'.

Length 75 m; draft 5 m.

Type: Cargo ship. MMSI: 431501842.

Date/timePositionNaut miles runAvg speedWind from/ knotsBaromVisibWave heightAir tempDewpointWater temp
2015-May-20 17:24N 35°51' E 140°57'1011.6
2015-May-20 16:33N 35°41' E 140°56'1511.5
2015-May-20 15:16N 35°30' E 140°45'911.9
2015-May-20 14:33N 35°23' E 140°39'1512.7
2015-May-20 13:22N 35°11' E 140°27'1412.9
2015-May-20 12:16N 35°02' E 140°14'911.9
2015-May-20 11:32N 34°57' E 140°05'1511.1
2015-May-20 10:11N 34°53' E 139°48'711.0
2015-May-20 09:33N 34°59' E 139°44'1111.4
2015-May-20 08:33N 35°10' E 139°46'1010.4
2015-May-20 07:33N 35°20' E 139°43'1010.3
2015-May-20 06:33N 35°29' E 139°50'9 9.0
2015-May-20 05:33N 35°37' E 139°48'0 0.0
2015-May-20 04:30N 35°37' E 139°48'0 0.0
2015-May-20 03:26N 35°37' E 139°48'0 0.0
2015-May-20 02:32N 35°37' E 139°48'0 0.0
2015-May-20 01:32N 35°37' E 139°48'0 0.0
2015-May-20 00:17N 35°37' E 139°48'0 0.0
2015-May-19 23:32N 35°37' E 139°48'0 0.0
2015-May-19 22:32N 35°37' E 139°48'0 0.0
2015-May-19 13:30N 35°37' E 139°48'0 0.0
2015-May-19 12:30N 35°37' E 139°48'0 0.0
2015-May-19 11:30N 35°37' E 139°48'0 0.0
2015-May-19 10:24N 35°37' E 139°48'0 0.0
2015-May-19 09:33N 35°37' E 139°48'0 0.0
2015-May-19 08:33N 35°37' E 139°48'0 0.0
2015-May-19 07:33N 35°37' E 139°48'0 0.0
2015-May-19 06:33N 35°37' E 139°48'0 0.0
2015-May-19 05:30N 35°37' E 139°48'0 0.0
2015-May-19 04:30N 35°37' E 139°48'0 0.0
2015-May-19 03:33N 35°37' E 139°48'0 0.2
2015-May-19 02:33N 35°37' E 139°48'0 0.0
2015-May-19 01:29N 35°37' E 139°48'0 0.0
2015-May-19 00:32N 35°37' E 139°48'0 0.0
2015-May-18 23:29N 35°37' E 139°48'0 0.0
2015-May-18 04:34N 35°37' E 139°48'8 8.4
2015-May-18 03:33N 35°30' E 139°52'1111.4
2015-May-18 02:33N 35°20' E 139°44'10 9.9
2015-May-18 01:33N 35°10' E 139°45'254 9.7
2015-May-16 23:25N 34°05' E 134°48'1111.3
2015-May-16 22:29N 34°13' E 134°40'  
2015-May-14 08:32N 33°51' E 130°24'1212.4
2015-May-14 07:34N 33°44' E 130°12'6 0.2
2015-May-13 03:33N 33°39' E 130°08'1010.5
2015-May-13 02:33N 33°38' E 130°21'3 0.1
2015-May-11 06:29N 33°37' E 130°24'1 0.7
2015-May-11 05:32N 33°37' E 130°25'0 0.0
2015-May-11 04:32N 33°37' E 130°25'0 0.0
2015-May-11 03:32N 33°37' E 130°25'0 0.0
2015-May-11 02:29N 33°37' E 130°25'0 0.0
2015-May-11 01:29N 33°37' E 130°25'0 0.0
2015-May-10 23:32N 33°37' E 130°25'  
Track history (hours):
 
Tides and Currents Weather Stations Pressure Air Temp Water Temp Dewpoint Dewpoint Depression Visibility Wind Speed Wind Dir Waves Ship Positions

Sankoumaru 31

Last reported at 2015-May-20 17:24 UTC. Time now 2015-May-22 14:40 UTC.
Position N 35°51' E 140°57'.

Length 75 m; draft 5 m.

Type: Cargo ship. MMSI: 431501842.

Date/timePositionNaut miles runAvg speedWind from/ knotsBaromVisibWave heightAir tempDewpointWater temp
2015-May-20 17:24N 35°51' E 140°57'1011.6
2015-May-20 16:33N 35°41' E 140°56'1511.5
2015-May-20 15:16N 35°30' E 140°45'911.9
2015-May-20 14:33N 35°23' E 140°39'1512.7
2015-May-20 13:22N 35°11' E 140°27'1412.9
2015-May-20 12:16N 35°02' E 140°14'911.9
2015-May-20 11:32N 34°57' E 140°05'1511.1
2015-May-20 10:11N 34°53' E 139°48'711.0
2015-May-20 09:33N 34°59' E 139°44'1111.4
2015-May-20 08:33N 35°10' E 139°46'1010.4
2015-May-20 07:33N 35°20' E 139°43'1010.3
2015-May-20 06:33N 35°29' E 139°50'9 9.0
2015-May-20 05:33N 35°37' E 139°48'0 0.0
2015-May-20 04:30N 35°37' E 139°48'0 0.0
2015-May-20 03:26N 35°37' E 139°48'0 0.0
2015-May-20 02:32N 35°37' E 139°48'0 0.0
2015-May-20 01:32N 35°37' E 139°48'0 0.0
2015-May-20 00:17N 35°37' E 139°48'0 0.0
2015-May-19 23:32N 35°37' E 139°48'0 0.0
2015-May-19 22:32N 35°37' E 139°48'0 0.0
2015-May-19 13:30N 35°37' E 139°48'0 0.0
2015-May-19 12:30N 35°37' E 139°48'0 0.0
2015-May-19 11:30N 35°37' E 139°48'0 0.0
2015-May-19 10:24N 35°37' E 139°48'0 0.0
2015-May-19 09:33N 35°37' E 139°48'0 0.0
2015-May-19 08:33N 35°37' E 139°48'0 0.0
2015-May-19 07:33N 35°37' E 139°48'0 0.0
2015-May-19 06:33N 35°37' E 139°48'0 0.0
2015-May-19 05:30N 35°37' E 139°48'0 0.0
2015-May-19 04:30N 35°37' E 139°48'0 0.0
2015-May-19 03:33N 35°37' E 139°48'0 0.2
2015-May-19 02:33N 35°37' E 139°48'0 0.0
2015-May-19 01:29N 35°37' E 139°48'0 0.0
2015-May-19 00:32N 35°37' E 139°48'0 0.0
2015-May-18 23:29N 35°37' E 139°48'0 0.0
2015-May-18 04:34N 35°37' E 139°48'8 8.4
2015-May-18 03:33N 35°30' E 139°52'1111.4
2015-May-18 02:33N 35°20' E 139°44'10 9.9
2015-May-18 01:33N 35°10' E 139°45'254 9.7
2015-May-16 23:25N 34°05' E 134°48'1111.3
2015-May-16 22:29N 34°13' E 134°40'  
2015-May-14 08:32N 33°51' E 130°24'1212.4
2015-May-14 07:34N 33°44' E 130°12'6 0.2
2015-May-13 03:33N 33°39' E 130°08'1010.5
2015-May-13 02:33N 33°38' E 130°21'3 0.1
2015-May-11 06:29N 33°37' E 130°24'1 0.7
2015-May-11 05:32N 33°37' E 130°25'0 0.0
2015-May-11 04:32N 33°37' E 130°25'0 0.0
2015-May-11 03:32N 33°37' E 130°25'0 0.0
2015-May-11 02:29N 33°37' E 130°25'0 0.0
2015-May-11 01:29N 33°37' E 130°25'0 0.0
2015-May-10 23:32N 33°37' E 130°25'  

Dump ship's entire track history